Time;durP1;ratioP1;P1;durP2;ratioP2;P2;SDS_P1;SDS_P2;PMS_P1;PMS_P2;Temp;Humidity;BMP_temperature;BMP_pressure;BME280_temperature;BME280_humidity;BME280_pressure;Samples;Min_cycle;Max_cycle;Signal;HPM_P1;HPM_P2
2022/11/01 00:02:11;;;;;;;16.42;8.38;;;;;;;14.19;88.79;101378.06;5016305;28;20061;-75
2022/11/01 00:04:39;;;;;;;17.55;7.75;;;;;;;14.21;88.06;101373.09;5018523;28;20056;-75
2022/11/01 00:07:07;;;;;;;14.50;7.82;;;;;;;14.24;88.11;101375.25;5041173;28;20053;-75
2022/11/01 00:09:35;;;;;;;14.88;8.48;;;;;;;14.32;87.26;101378.53;5020475;28;20037;-75
2022/11/01 00:12:03;;;;;;;19.42;7.85;;;;;;;14.30;86.88;101377.97;5018568;28;20496;-75
2022/11/01 00:14:31;;;;;;;11.30;6.95;;;;;;;14.22;87.33;101374.72;5008175;28;20496;-75
2022/11/01 00:16:59;;;;;;;12.82;7.45;;;;;;;14.21;87.62;101370.34;5015514;28;20489;-75
2022/11/01 00:19:26;;;;;;;15.07;7.25;;;;;;;14.21;88.04;101380.50;5015532;28;20042;-75
2022/11/01 00:21:54;;;;;;;12.35;7.35;;;;;;;14.24;87.85;101379.97;5015674;28;20058;-75
2022/11/01 00:24:22;;;;;;;21.98;8.02;;;;;;;14.23;87.68;101372.81;5013011;28;20042;-75
2022/11/01 00:26:50;;;;;;;16.70;8.57;;;;;;;14.15;88.07;101376.97;5023283;28;20061;-75
2022/11/01 00:29:17;;;;;;;14.45;7.90;;;;;;;14.11;87.31;101375.91;5014986;28;20061;-75
2022/11/01 00:31:45;;;;;;;16.63;7.93;;;;;;;14.11;87.13;101375.91;5015419;28;20449;-75
2022/11/01 00:34:14;;;;;;;16.00;8.60;;;;;;;14.09;87.51;101367.13;5006348;28;20488;-75
2022/11/01 00:36:42;;;;;;;17.25;7.72;;;;;;;14.11;86.88;101373.16;5012082;28;20058;-75
2022/11/01 00:39:13;;;;;;;16.67;7.70;;;;;;;14.06;87.63;101364.91;5015319;28;20050;-74
2022/11/01 00:41:41;;;;;;;23.08;8.95;;;;;;;13.94;87.57;101363.31;5022003;28;20402;-75
2022/11/01 00:44:08;;;;;;;16.67;8.55;;;;;;;13.98;87.67;101367.16;5021320;28;20489;-75
2022/11/01 00:46:36;;;;;;;17.33;8.13;;;;;;;13.98;87.75;101358.91;5007987;28;20031;-75
2022/11/01 00:49:04;;;;;;;14.68;7.72;;;;;;;13.96;87.49;101357.53;5014950;28;20050;-75
2022/11/01 00:51:32;;;;;;;20.10;8.80;;;;;;;13.96;87.29;101369.38;5018124;28;20493;-75
2022/11/01 00:54:00;;;;;;;16.30;7.80;;;;;;;13.98;87.39;101361.66;5032219;28;20480;-75
2022/11/01 00:56:28;;;;;;;14.52;7.65;;;;;;;13.95;87.50;101358.66;5011523;28;20053;-75
2022/11/01 00:58:55;;;;;;;16.10;7.82;;;;;;;13.93;87.67;101364.44;5014571;28;20408;-75
2022/11/01 01:01:23;;;;;;;14.93;6.68;;;;;;;13.94;87.83;101365.28;5020364;28;20057;-75
2022/11/01 01:03:51;;;;;;;14.38;8.30;;;;;;;13.97;86.82;101354.53;5012128;28;20042;-75
2022/11/01 01:06:19;;;;;;;17.63;7.65;;;;;;;14.00;86.73;101363.31;5023976;28;20056;-75
2022/11/01 01:08:47;;;;;;;14.85;7.47;;;;;;;13.96;87.12;101366.63;5014286;28;20038;-75
2022/11/01 01:11:15;;;;;;;13.40;6.95;;;;;;;13.98;86.96;101372.66;5025825;28;20044;-75
2022/11/01 01:13:42;;;;;;;15.10;6.88;;;;;;;14.01;86.59;101367.69;5029252;28;20072;-75
2022/11/01 01:16:11;;;;;;;17.75;6.78;;;;;;;14.02;86.49;101370.16;5011063;28;20041;-75
2022/11/01 01:18:39;;;;;;;11.20;6.32;;;;;;;13.98;86.46;101367.16;5020693;28;20054;-75
2022/11/01 01:21:07;;;;;;;14.10;6.32;;;;;;;13.96;86.21;101369.38;5014006;28;20042;-75
2022/11/01 01:23:35;;;;;;;10.07;5.72;;;;;;;13.90;86.82;101358.69;5014055;28;20045;-75
2022/11/01 01:26:06;;;;;;;7.07;5.07;;;;;;;13.90;86.08;101359.53;5020661;28;20046;-75
2022/11/01 01:28:35;;;;;;;11.95;6.43;;;;;;;13.90;85.93;101362.28;5027085;28;20530;-75
2022/11/01 01:31:12;;;;;;;10.88;5.78;;;;;;;13.86;86.33;101354.84;5023686;28;20042;-75
2022/11/01 01:33:42;;;;;;;12.55;6.43;;;;;;;13.81;86.35;101361.19;5014426;28;20056;-75
2022/11/01 01:36:12;;;;;;;17.30;6.70;;;;;;;13.88;86.07;101358.16;5012838;28;20053;-75
2022/11/01 01:38:40;;;;;;;11.73;6.82;;;;;;;13.89;86.32;101354.28;5010820;28;20050;-75
2022/11/01 01:43:54;;;;;;;13.38;6.60;;;;;;;13.82;86.66;101362.84;5012116;28;20473;-74
2022/11/01 01:46:22;;;;;;;12.40;7.22;;;;;;;13.80;86.76;101354.91;5015232;28;20046;-75
2022/11/01 01:48:55;;;;;;;14.57;6.93;;;;;;;13.76;86.94;101363.97;5015640;28;20054;-75
2022/11/01 01:51:26;;;;;;;11.35;6.75;;;;;;;13.75;87.24;101363.16;5013660;28;20042;-75
2022/11/01 01:53:57;;;;;;;15.55;7.45;;;;;;;13.69;86.60;101358.81;5010338;28;21723;-75
2022/11/01 01:56:34;;;;;;;12.77;6.32;;;;;;;13.65;87.36;101363.22;5019184;28;20053;-75
2022/11/01 01:59:07;;;;;;;12.95;5.97;;;;;;;13.57;86.81;101359.94;5000345;28;20066;-75
2022/11/01 02:01:39;;;;;;;11.37;6.17;;;;;;;13.60;87.28;101357.72;5013239;28;20389;-75
2022/11/01 02:04:21;;;;;;;19.08;7.00;;;;;;;13.62;87.45;101353.59;5022039;28;20041;-75
2022/11/01 02:06:49;;;;;;;13.82;6.13;;;;;;;13.59;86.80;101353.34;5017805;28;20053;-75
2022/11/01 02:09:17;;;;;;;12.57;5.97;;;;;;;13.69;86.43;101348.59;5014686;28;20041;-75
2022/11/01 02:11:45;;;;;;;10.27;5.70;;;;;;;13.74;86.19;101356.00;5031483;28;20041;-75
2022/11/01 02:14:15;;;;;;;10.95;6.28;;;;;;;13.75;86.41;101356.84;5012379;28;20050;-75
2022/11/01 02:16:50;;;;;;;12.68;6.15;;;;;;;13.73;85.99;101361.81;5013180;28;20053;-75
2022/11/01 02:19:39;;;;;;;13.35;6.03;;;;;;;13.69;86.88;101348.59;5012355;28;20046;-75
2022/11/01 02:22:16;;;;;;;15.57;6.30;;;;;;;13.59;86.78;101348.63;5012852;28;20049;-75
2022/11/01 02:25:20;;;;;;;17.25;6.55;;;;;;;13.55;86.95;101355.81;5012077;28;20401;-75
2022/11/01 02:27:59;;;;;;;15.43;6.85;;;;;;;13.52;87.34;101353.63;5019133;28;20065;-75
2022/11/01 02:31:08;;;;;;;11.63;6.28;;;;;;;13.59;86.61;101354.13;5022482;28;20057;-75
2022/11/01 02:33:46;;;;;;;11.77;6.40;;;;;;;13.50;87.85;101353.91;4998281;28;20134;-75
2022/11/01 02:36:21;;;;;;;12.68;6.60;;;;;;;13.48;87.81;101358.06;5009803;28;20050;-75
2022/11/01 02:38:58;;;;;;;14.23;7.38;;;;;;;13.50;87.73;101355.84;5000550;28;20061;-75
2022/11/01 02:41:30;;;;;;;19.55;8.45;;;;;;;13.57;87.42;101350.84;5023633;28;20408;-75
2022/11/01 02:44:02;;;;;;;21.67;8.32;;;;;;;13.59;87.87;101351.38;5014694;28;20049;-75
2022/11/01 02:49:23;;;;;;;18.25;8.60;;;;;;;13.47;88.47;101350.88;5008037;28;20046;-75
2022/11/01 02:51:52;;;;;;;16.17;8.13;;;;;;;13.42;88.57;101348.97;5014087;28;20057;-75
2022/11/01 02:54:26;;;;;;;19.05;8.77;;;;;;;13.30;88.45;101347.34;5016693;28;20051;-75
2022/11/01 02:56:57;;;;;;;17.08;8.43;;;;;;;13.25;88.75;101349.31;5017312;28;20054;-75
2022/11/01 02:59:27;;;;;;;17.08;8.25;;;;;;;13.30;88.89;101357.53;5011278;28;20052;-75
2022/11/01 03:02:08;;;;;;;19.67;8.63;;;;;;;13.35;88.55;101357.50;5011541;28;20053;-75
2022/11/01 03:04:36;;;;;;;18.33;8.23;;;;;;;13.32;88.37;101369.06;5011058;28;20056;-75
2022/11/01 03:07:09;;;;;;;21.23;9.40;;;;;;;13.29;89.20;101366.84;5006231;28;20064;-75
2022/11/01 03:09:39;;;;;;;17.38;9.13;;;;;;;13.26;88.15;101361.94;4996725;28;20038;-75
2022/11/01 03:12:24;;;;;;;13.90;7.85;;;;;;;13.22;89.42;101371.81;4999726;28;20045;-72
2022/11/01 03:15:06;;;;;;;;;;;;;;;13.20;89.47;101363.06;5008637;28;20527;-71
2022/11/01 03:17:52;;;;;;;18.10;8.10;;;;;;;13.23;89.11;101362.47;4997910;28;20265;-71
2022/11/01 03:20:25;;;;;;;14.73;7.65;;;;;;;13.19;89.36;101366.91;4999234;28;20054;-71
2022/11/01 03:22:57;;;;;;;20.30;8.17;;;;;;;13.21;88.76;101361.94;4993523;28;20049;-71
2022/11/01 03:25:45;;;;;;;20.00;8.65;;;;;;;13.20;89.10;101363.06;5002521;28;20507;-71
2022/11/01 03:28:36;;;;;;;20.23;7.50;;;;;;;13.25;88.29;101374.03;5004142;28;20065;-71
2022/11/01 03:31:10;;;;;;;12.30;6.88;;;;;;;13.21;88.21;101367.44;4992987;28;20114;-71
2022/11/01 03:33:44;;;;;;;16.48;7.40;;;;;;;13.19;88.15;101372.41;4993262;28;20043;-71
2022/11/01 03:36:13;;;;;;;;;;;;;;;13.20;87.67;101365.78;4994390;28;20401;-72
2022/11/01 03:38:48;;;;;;;12.07;6.30;;;;;;;13.15;88.33;101367.44;4998323;28;19932;-71
2022/11/01 03:41:17;;;;;;;16.02;6.43;;;;;;;13.12;87.54;101367.19;5008884;28;20061;-71
2022/11/01 03:43:46;;;;;;;11.88;6.07;;;;;;;13.10;88.39;101364.72;4995403;28;20042;-71
2022/11/01 03:46:15;;;;;;;11.77;6.55;;;;;;;13.05;88.57;101361.97;5014097;28;20524;-71
2022/11/01 03:48:43;;;;;;;13.85;6.60;;;;;;;13.11;87.69;101376.53;5014045;28;20054;-71
2022/11/01 03:51:11;;;;;;;14.68;6.75;;;;;;;13.00;87.75;101390.28;5019942;28;20042;-71
2022/11/01 03:53:39;;;;;;;13.02;5.72;;;;;;;13.10;87.27;101407.88;5008735;28;20051;-71
2022/11/01 03:56:07;;;;;;;14.57;6.72;;;;;;;13.01;86.99;101397.41;5011959;28;20461;-71
2022/11/01 03:58:42;;;;;;;14.43;5.95;;;;;;;12.95;87.58;101400.47;5011879;28;20079;-71
2022/11/01 04:01:14;;;;;;;8.05;5.25;;;;;;;12.98;86.98;101394.41;5010652;28;20058;-71
2022/11/01 04:03:43;;;;;;;8.18;4.85;;;;;;;12.94;87.04;101390.56;5008723;28;20425;-71
2022/11/01 04:06:11;;;;;;;8.05;4.90;;;;;;;12.89;87.28;101400.47;5011082;28;20061;-71
2022/11/01 04:08:39;;;;;;;11.65;6.13;;;;;;;12.89;87.30;101397.72;5011605;28;20504;-71
2022/11/01 04:11:07;;;;;;;10.10;6.07;;;;;;;12.84;87.17;101388.63;5011669;28;20382;-71
2022/11/01 04:13:35;;;;;;;10.35;5.75;;;;;;;12.87;87.12;101388.09;5008076;28;20530;-71
2022/11/01 04:21:36;;;;;;;7.13;4.63;;;;;;;12.86;87.33;101390.00;5020394;28;20058;-72
2022/11/01 04:24:04;;;;;;;10.20;6.05;;;;;;;12.80;87.19;101399.34;5014211;28;20053;-71
2022/11/01 04:26:33;;;;;;;13.48;5.65;;;;;;;12.75;87.46;101396.59;5014553;28;20153;-72
2022/11/01 04:29:01;;;;;;;7.70;4.60;;;;;;;12.58;87.67;101396.88;5016589;28;20046;-71
2022/11/01 04:31:33;;;;;;;13.65;5.50;;;;;;;12.58;87.86;101389.47;5021938;28;20050;-71
2022/11/01 04:34:03;;;;;;;9.38;5.30;;;;;;;12.50;88.27;101390.00;5009327;28;20049;-72
2022/11/01 04:36:31;;;;;;;9.30;4.38;;;;;;;12.56;88.12;101397.16;4997954;28;20065;-72
2022/11/01 04:38:59;;;;;;;8.13;4.38;;;;;;;12.60;87.68;101381.78;5015290;28;20404;-72
2022/11/01 04:41:28;;;;;;;8.32;4.85;;;;;;;12.61;88.04;101385.38;5014147;28;20062;-72
2022/11/01 04:43:57;;;;;;;10.02;5.35;;;;;;;12.59;88.65;101382.06;5011470;28;20393;-72
2022/11/01 04:46:29;;;;;;;8.95;5.25;;;;;;;12.60;88.34;101390.03;5011676;28;20050;-72
2022/11/01 04:48:57;;;;;;;8.02;4.90;;;;;;;12.66;88.26;101379.03;5017967;28;20046;-72
2022/11/01 04:51:25;;;;;;;13.10;5.55;;;;;;;12.68;88.23;101382.31;5012311;28;20061;-72
2022/11/01 04:53:53;;;;;;;11.95;5.50;;;;;;;12.61;88.61;101377.94;5014974;28;20056;-72
2022/11/01 04:56:21;;;;;;;8.38;4.95;;;;;;;12.74;88.10;101381.22;5003533;28;20051;-72
2022/11/01 04:58:48;;;;;;;9.07;5.07;;;;;;;12.63;88.40;101383.16;4999918;28;20053;-72
2022/11/01 05:01:16;;;;;;;8.82;5.07;;;;;;;12.70;88.13;101372.72;5013452;28;20057;-72
2022/11/01 05:03:46;;;;;;;11.82;5.32;;;;;;;12.68;87.65;101379.59;5017053;28;20053;-72
2022/11/01 05:06:14;;;;;;;12.45;5.82;;;;;;;12.65;87.39;101380.16;5009682;28;20053;-72
2022/11/01 05:08:42;;;;;;;10.02;5.68;;;;;;;12.56;87.93;101379.88;5013869;28;20065;-72
2022/11/01 05:11:10;;;;;;;8.65;5.00;;;;;;;12.48;88.21;101382.03;5016465;28;20488;-72
2022/11/01 05:13:37;;;;;;;13.43;5.50;;;;;;;12.52;88.41;101381.50;5012667;28;20489;-72
2022/11/01 05:16:05;;;;;;;13.25;6.18;;;;;;;12.51;88.57;101380.66;5007600;28;20413;-72
2022/11/01 05:18:46;;;;;;;12.90;5.90;;;;;;;12.44;88.14;101385.59;5013586;28;20052;-72
2022/11/01 05:21:14;;;;;;;11.73;6.85;;;;;;;12.40;88.54;101385.34;5013448;28;20045;-72
2022/11/01 05:23:42;;;;;;;16.20;7.15;;;;;;;12.36;89.62;101389.72;5009070;28;20054;-72
2022/11/01 05:26:10;;;;;;;17.23;8.18;;;;;;;12.29;89.74;101387.25;5005670;28;20054;-72
2022/11/01 05:28:38;;;;;;;17.55;8.88;;;;;;;12.23;90.72;101385.59;5013097;28;20061;-72
2022/11/01 05:31:06;;;;;;;23.60;9.60;;;;;;;12.35;91.02;101394.41;5001499;28;20054;-72
2022/11/01 05:33:34;;;;;;;16.92;9.82;;;;;;;12.36;90.92;101385.06;5014685;28;20049;-72
2022/11/01 05:36:02;;;;;;;27.60;10.10;;;;;;;12.34;91.03;101391.91;4997903;28;20050;-72
2022/11/01 05:38:30;;;;;;;20.92;10.35;;;;;;;12.36;91.31;101395.19;5012896;28;20045;-72
2022/11/01 05:41:01;;;;;;;21.08;10.90;;;;;;;12.37;91.78;101396.88;5013290;28;20045;-72
2022/11/01 05:43:29;;;;;;;21.08;10.10;;;;;;;12.32;91.78;101394.91;5024896;28;20057;-72
2022/11/01 05:45:57;;;;;;;21.77;10.45;;;;;;;12.34;91.84;101395.50;5013138;28;20053;-72
2022/11/01 05:48:25;;;;;;;26.10;11.43;;;;;;;12.38;91.85;101404.00;5012575;28;20058;-72
2022/11/01 05:50:52;;;;;;;24.33;12.02;;;;;;;12.34;91.54;101400.97;5017376;28;20053;-72
2022/11/01 05:53:20;;;;;;;25.80;10.48;;;;;;;12.41;91.50;101408.94;5015982;28;20064;-75
2022/11/01 05:55:48;;;;;;;21.17;10.77;;;;;;;12.50;91.51;101406.47;5012902;28;20053;-74
2022/11/01 05:58:16;;;;;;;22.25;9.95;;;;;;;12.52;91.57;101403.47;5011479;28;20050;-72
2022/11/01 06:00:44;;;;;;;22.73;11.68;;;;;;;12.59;91.34;101393.03;5012344;28;20555;-73
2022/11/01 06:03:12;;;;;;;25.50;11.50;;;;;;;12.60;91.07;101412.00;5013263;28;20041;-73
2022/11/01 06:05:39;;;;;;;23.02;11.48;;;;;;;12.63;91.20;101411.44;5020731;28;20037;-73
2022/11/01 06:08:08;;;;;;;24.05;11.63;;;;;;;12.79;90.78;101405.94;5009439;28;20046;-73
2022/11/01 06:10:36;;;;;;;28.55;12.95;;;;;;;12.84;90.86;101400.47;5012528;28;20042;-73
2022/11/01 06:13:03;;;;;;;25.00;11.50;;;;;;;12.90;90.15;101413.09;5013250;28;20574;-73
2022/11/01 06:15:31;;;;;;;24.95;11.50;;;;;;;12.90;90.44;101412.25;5007565;28;20042;-72
2022/11/01 06:18:05;;;;;;;23.67;12.48;;;;;;;13.03;90.12;101410.88;5012885;28;20050;-72
2022/11/01 06:20:35;;;;;;;26.83;13.00;;;;;;;13.18;89.53;101418.28;5012826;28;20045;-72
2022/11/01 06:23:10;;;;;;;25.52;12.20;;;;;;;13.22;88.91;101416.66;5004200;28;20064;-72
2022/11/01 06:25:38;;;;;;;24.83;12.10;;;;;;;13.25;88.75;101431.75;5008061;28;20046;-72
2022/11/01 06:28:05;;;;;;;29.02;12.07;;;;;;;13.28;88.55;101426.53;5012313;28;20050;-72
2022/11/01 06:30:33;;;;;;;21.95;11.93;;;;;;;13.36;88.64;101427.88;5011830;28;20042;-72
2022/11/01 06:33:01;;;;;;;20.83;10.73;;;;;;;13.48;87.98;101435.84;5000354;28;20491;-72
2022/11/01 06:35:30;;;;;;;21.45;12.27;;;;;;;13.54;87.77;101436.69;5004699;28;20046;-72
2022/11/01 06:38:08;;;;;;;24.92;11.88;;;;;;;13.66;87.62;101436.34;4987887;28;20057;-72
2022/11/01 06:40:36;;;;;;;23.33;10.98;;;;;;;13.87;87.57;101448.13;5012649;28;20038;-72
2022/11/01 06:43:04;;;;;;;24.13;12.73;;;;;;;13.95;86.39;101442.03;5005839;28;20053;-72
2022/11/01 06:45:33;;;;;;;35.33;12.65;;;;;;;14.27;85.58;101444.63;5012186;28;20042;-73
2022/11/01 06:48:01;;;;;;;34.08;11.63;;;;;;;14.47;85.07;101440.94;5027439;28;20046;-73
2022/11/01 06:50:29;;;;;;;26.05;12.20;;;;;;;14.60;83.79;101444.97;5009839;28;20046;-73
2022/11/01 06:52:58;;;;;;;23.58;11.35;;;;;;;14.64;82.40;101446.88;5011179;28;20408;-73
2022/11/01 06:55:28;;;;;;;24.73;10.77;;;;;;;14.87;82.44;101441.75;5011558;28;20065;-73
2022/11/01 06:57:58;;;;;;;25.23;11.82;;;;;;;15.05;80.80;101447.69;5012182;28;20397;-72
2022/11/01 07:00:27;;;;;;;20.77;11.43;;;;;;;15.23;80.32;101453.59;5011752;28;20077;-73
2022/11/01 07:03:01;;;;;;;24.80;11.25;;;;;;;15.36;80.04;101457.59;5012241;28;20057;-72
2022/11/01 07:05:31;;;;;;;23.05;11.00;;;;;;;15.54;79.98;101465.13;5011982;28;20041;-72
2022/11/01 07:08:06;;;;;;;24.83;12.00;;;;;;;15.67;78.78;101454.53;5004372;28;20048;-73
2022/11/01 07:10:36;;;;;;;26.02;10.88;;;;;;;16.00;77.82;101468.53;5022852;28;20054;-73
2022/11/01 07:13:05;;;;;;;24.10;11.48;;;;;;;16.26;76.92;101479.22;5011922;28;20400;-73
2022/11/01 07:15:34;;;;;;;21.25;10.73;;;;;;;16.37;76.90;101485.44;5012291;28;20053;-72
2022/11/01 07:18:04;;;;;;;21.77;10.90;;;;;;;16.62;76.62;101477.91;5020245;28;20049;-72
2022/11/01 07:20:42;;;;;;;21.55;9.23;;;;;;;16.89;74.13;101482.75;5024870;28;20041;-72
2022/11/01 07:23:15;;;;;;;20.17;10.50;;;;;;;16.92;73.76;101473.03;5012245;28;20076;-72
2022/11/01 07:25:43;;;;;;;21.00;10.15;;;;;;;16.64;74.97;101489.47;5012911;28;20404;-72
2022/11/01 07:28:11;;;;;;;24.02;10.65;;;;;;;16.74;75.24;101488.50;5004534;28;20046;-72
2022/11/01 07:30:39;;;;;;;32.38;10.63;;;;;;;16.63;76.16;101488.66;5008693;28;20544;-73
2022/11/01 07:33:08;;;;;;;24.38;9.95;;;;;;;16.74;75.80;101483.81;5005888;28;20384;-73
2022/11/01 07:35:37;;;;;;;23.60;10.05;;;;;;;16.93;74.69;101480.19;5008846;28;20054;-74
2022/11/01 07:38:05;;;;;;;20.85;9.82;;;;;;;16.98;75.69;101487.59;5005027;28;20507;-73
2022/11/01 07:40:40;;;;;;;24.05;10.18;;;;;;;17.06;75.12;101486.94;5009037;28;20052;-73
2022/11/01 07:43:08;;;;;;;22.50;10.30;;;;;;;16.96;75.70;101484.31;5005828;28;20405;-76
2022/11/01 07:45:36;;;;;;;22.88;9.88;;;;;;;17.07;75.48;101491.34;5004333;28;21370;-76
2022/11/01 07:48:09;;;;;;;18.90;10.40;;;;;;;17.12;75.76;101491.25;5006578;28;20137;-76
2022/11/01 07:50:39;;;;;;;22.05;10.82;;;;;;;17.18;75.76;101495.59;4998519;28;20057;-76
2022/11/01 07:53:14;;;;;;;22.88;8.95;;;;;;;17.17;75.84;101501.41;5013015;28;20045;-77
2022/11/01 07:55:43;;;;;;;22.15;9.85;;;;;;;17.34;75.76;101492.53;5022954;28;20166;-73
2022/11/01 07:58:12;;;;;;;21.50;9.35;;;;;;;17.52;75.77;101498.31;5003005;28;20051;-73
2022/11/01 08:00:42;;;;;;;22.58;10.10;;;;;;;17.56;75.06;101482.75;5004826;28;20050;-74
2022/11/01 08:03:12;;;;;;;14.55;7.55;;;;;;;17.65;74.19;101493.94;5015862;28;20049;-73
2022/11/01 08:05:42;;;;;;;24.55;9.95;;;;;;;17.59;74.13;101490.41;5017130;28;20057;-74
2022/11/01 08:08:10;;;;;;;15.75;7.72;;;;;;;17.56;73.30;101497.38;5014814;28;20061;-73
2022/11/01 08:10:39;;;;;;;19.25;8.18;;;;;;;17.59;72.54;101498.72;5015646;28;20045;-73
2022/11/01 08:13:19;;;;;;;19.88;7.85;;;;;;;17.50;74.50;101500.56;5015331;28;20053;-73
2022/11/01 08:15:49;;;;;;;15.50;7.30;;;;;;;17.63;73.05;101497.00;5025857;28;20065;-73
2022/11/01 08:18:21;;;;;;;14.45;7.68;;;;;;;17.78;73.52;101500.59;5015326;28;20412;-74
2022/11/01 08:20:50;;;;;;;17.92;8.10;;;;;;;17.80;72.22;101498.34;5015508;28;20854;-73
2022/11/01 08:23:19;;;;;;;17.77;7.18;;;;;;;17.81;72.77;101499.97;5015731;28;20042;-73
2022/11/01 08:25:46;;;;;;;14.82;7.38;;;;;;;17.95;73.15;101502.75;5012162;28;20684;-73
2022/11/01 08:28:18;;;;;;;19.75;7.60;;;;;;;17.90;72.18;101495.38;5018482;28;20042;-73
2022/11/01 08:30:48;;;;;;;16.95;7.63;;;;;;;17.99;72.13;101501.03;5020469;28;20057;-73
2022/11/01 08:33:16;;;;;;;16.27;8.63;;;;;;;17.95;72.15;101500.00;5002131;28;20053;-74
2022/11/01 08:35:47;;;;;;;16.02;8.30;;;;;;;17.97;71.75;101495.78;5006634;28;20049;-73
2022/11/01 08:38:18;;;;;;;15.55;8.38;;;;;;;17.92;72.43;101498.66;5014416;28;20042;-73
2022/11/01 08:40:46;;;;;;;19.42;8.90;;;;;;;18.03;72.54;101496.50;5014897;28;20496;-73
2022/11/01 08:43:16;;;;;;;18.42;9.15;;;;;;;18.29;71.48;101495.16;5002449;28;20050;-74
2022/11/01 08:45:45;;;;;;;16.27;9.00;;;;;;;18.43;70.05;101495.94;5015891;28;20049;-73
2022/11/01 08:48:13;;;;;;;17.13;8.88;;;;;;;18.33;70.52;101502.53;5015376;28;20085;-73
2022/11/01 08:50:41;;;;;;;20.60;9.90;;;;;;;18.42;69.91;101499.06;5025349;28;20041;-72
2022/11/01 08:53:13;;;;;;;17.35;8.20;;;;;;;18.51;70.14;101498.00;5004591;28;20043;-74
2022/11/01 08:55:44;;;;;;;16.75;8.02;;;;;;;18.72;70.27;101505.81;5002495;28;20053;-73
2022/11/01 08:58:12;;;;;;;18.88;9.23;;;;;;;18.86;69.70;101508.56;5009597;28;20404;-72
2022/11/01 09:00:41;;;;;;;17.33;8.40;;;;;;;19.03;67.78;101510.69;5009840;28;20061;-73
2022/11/01 09:03:09;;;;;;;18.65;9.32;;;;;;;19.23;66.56;101505.75;5007252;28;20042;-72
2022/11/01 09:05:37;;;;;;;23.70;9.10;;;;;;;19.26;66.80;101505.09;4995391;28;20085;-72
2022/11/01 09:08:05;;;;;;;22.85;10.40;;;;;;;19.29;67.30;101515.59;4992786;28;20042;-73
2022/11/01 09:10:33;;;;;;;23.77;10.25;;;;;;;19.37;66.63;101511.22;5006464;28;20043;-71
2022/11/01 09:13:01;;;;;;;22.45;10.27;;;;;;;19.27;67.01;101505.94;5001492;28;20481;-72
2022/11/01 09:15:30;;;;;;;17.92;9.77;;;;;;;19.45;67.87;101510.44;4993373;28;20053;-73
2022/11/01 09:17:57;;;;;;;20.95;9.50;;;;;;;19.92;65.78;101503.63;5001895;28;20061;-72
2022/11/01 09:20:27;;;;;;;17.45;10.15;;;;;;;20.21;64.49;101510.63;4995050;28;20046;-73
2022/11/01 09:22:55;;;;;;;24.35;10.63;;;;;;;20.35;63.45;101516.03;4998034;28;20505;-72
2022/11/01 09:25:23;;;;;;;23.55;11.07;;;;;;;20.38;62.16;101514.59;5002201;28;20054;-72
2022/11/01 09:27:55;;;;;;;17.60;10.32;;;;;;;20.39;64.13;101513.44;5001600;28;20042;-73
2022/11/01 09:30:24;;;;;;;21.83;12.48;;;;;;;20.73;63.04;101516.56;4996891;28;20493;-73
2022/11/01 09:32:52;;;;;;;28.33;12.27;;;;;;;20.74;61.60;101523.75;4995155;28;20401;-73
2022/11/01 09:35:19;;;;;;;21.40;12.02;;;;;;;20.68;61.69;101532.25;4995972;28;20046;-73
2022/11/01 09:37:47;;;;;;;34.38;13.82;;;;;;;20.80;61.31;101536.34;5001325;28;20050;-74
2022/11/01 09:40:15;;;;;;;27.73;13.65;;;;;;;20.56;62.55;101532.09;5015056;28;20389;-73
2022/11/01 09:42:44;;;;;;;26.15;14.20;;;;;;;20.46;63.86;101533.22;5018075;28;20045;-72
2022/11/01 09:45:16;;;;;;;30.73;13.48;;;;;;;20.47;63.29;101540.41;5004456;28;20072;-73
2022/11/01 09:47:49;;;;;;;25.25;13.52;;;;;;;20.29;64.39;101528.47;5003017;28;20504;-73
2022/11/01 09:50:36;;;;;;;27.02;13.65;;;;;;;20.47;63.62;101539.63;5008848;28;20303;-73
2022/11/01 09:53:08;;;;;;;28.48;15.32;;;;;;;20.59;62.62;101533.41;5005812;28;20827;-73
2022/11/01 09:56:04;;;;;;;24.55;14.27;;;;;;;20.70;62.09;101531.09;4994969;28;20046;-73
2022/11/01 09:59:01;;;;;;;23.77;13.55;;;;;;;20.74;61.21;101529.31;5018277;28;20064;-73
2022/11/01 10:01:39;;;;;;;29.05;14.30;;;;;;;20.86;60.46;101535.06;4997457;28;20061;-73
2022/11/01 10:04:33;;;;;;;30.85;15.35;;;;;;;21.01;59.84;101530.19;4994178;28;20054;-73
2022/11/01 10:07:10;;;;;;;23.52;14.02;;;;;;;20.95;59.79;101521.16;5000589;28;20046;-73
2022/11/01 10:09:50;;;;;;;33.55;14.75;;;;;;;20.93;59.63;101515.91;5006131;28;20517;-73
2022/11/01 10:12:34;;;;;;;27.67;14.23;;;;;;;20.72;59.71;101517.72;4993387;28;20054;-73
2022/11/01 10:15:32;;;;;;;26.77;15.00;;;;;;;20.67;61.15;101527.84;5005642;28;20053;-73
2022/11/01 10:18:26;;;;;;;28.13;14.32;;;;;;;20.52;61.16;101519.97;5013655;28;20057;-73
2022/11/01 10:21:01;;;;;;;33.95;14.85;;;;;;;20.39;60.93;101511.44;4997131;28;20401;-72
2022/11/01 10:23:45;;;;;;;27.45;15.38;;;;;;;20.23;61.74;101526.97;5004358;28;20056;-73
2022/11/01 10:26:19;;;;;;;28.80;14.65;;;;;;;20.51;62.63;101519.16;5006628;28;20048;-73
2022/11/01 10:29:07;;;;;;;31.13;15.65;;;;;;;20.60;63.13;101527.53;5020872;28;20054;-72
2022/11/01 10:31:42;;;;;;;29.42;15.85;;;;;;;20.69;61.79;101521.97;4996216;28;20051;-72
2022/11/01 10:34:16;;;;;;;51.58;26.38;;;;;;;20.66;61.36;101520.66;4993595;28;20054;-72
2022/11/01 10:36:45;;;;;;;35.33;18.08;;;;;;;20.75;61.79;101517.88;5010455;28;20134;-73
2022/11/01 10:39:44;;;;;;;39.30;18.42;;;;;;;20.79;61.70;101530.00;5002159;28;20045;-72
2022/11/01 10:42:22;;;;;;;29.52;17.08;;;;;;;20.80;60.30;101522.44;5006305;28;20050;-72
2022/11/01 10:44:55;;;;;;;36.05;17.33;;;;;;;20.88;60.96;101526.41;4996302;28;20050;-72
2022/11/01 10:47:24;;;;;;;34.53;16.77;;;;;;;20.80;60.72;101522.44;4986984;28;20058;-72
2022/11/01 10:49:58;;;;;;;34.45;17.10;;;;;;;20.82;61.28;101517.38;4988761;28;20477;-72
2022/11/01 10:52:53;;;;;;;29.20;16.48;;;;;;;20.70;61.51;101515.25;4990454;28;20054;-72
2022/11/01 10:55:45;;;;;;;32.90;14.80;;;;;;;20.70;61.70;101511.63;5001461;28;20060;-72
2022/11/01 10:58:20;;;;;;;27.30;14.32;;;;;;;20.84;60.60;101514.25;5012523;28;21092;-72
2022/11/01 11:00:49;;;;;;;30.23;15.85;;;;;;;20.86;60.86;101512.03;5006538;28;20045;-72
2022/11/01 11:03:22;;;;;;;32.60;16.00;;;;;;;20.98;59.93;101508.56;5005058;28;20050;-72
2022/11/01 11:05:51;;;;;;;29.23;15.07;;;;;;;21.04;60.10;101505.28;5003581;28;20054;-72
2022/11/01 11:08:24;;;;;;;28.38;15.45;;;;;;;21.03;59.16;101511.19;5009416;28;20046;-72
2022/11/01 11:11:02;;;;;;;30.17;15.05;;;;;;;20.91;59.91;101507.09;5004256;28;20049;-73
2022/11/01 11:13:34;;;;;;;32.05;15.48;;;;;;;21.11;58.86;101501.19;5005585;28;20046;-72
2022/11/01 11:16:04;;;;;;;30.42;15.68;;;;;;;21.16;60.14;101499.03;5004826;28;20050;-73
2022/11/01 11:18:37;;;;;;;30.92;15.32;;;;;;;21.24;59.48;101491.00;5009375;28;20070;-73
2022/11/01 11:21:10;;;;;;;36.70;16.10;;;;;;;21.30;59.12;101498.03;4999490;28;20045;-73
2022/11/01 11:23:41;;;;;;;29.58;14.90;;;;;;;21.25;59.45;101475.94;5004267;28;20072;-73
2022/11/01 11:26:15;;;;;;;31.77;17.40;;;;;;;21.29;60.13;101474.94;4994470;28;20524;-74
2022/11/01 11:28:55;;;;;;;29.70;15.32;;;;;;;21.40;59.27;101472.63;4986320;28;20895;-74
2022/11/01 11:31:27;;;;;;;32.13;16.63;;;;;;;21.58;57.84;101478.94;4988468;28;20076;-74
2022/11/01 11:33:59;;;;;;;29.98;15.90;;;;;;;21.56;58.12;101472.06;4987957;28;20050;-74
2022/11/01 11:36:31;;;;;;;28.20;15.02;;;;;;;21.41;59.39;101476.22;4985786;28;20065;-74
2022/11/01 11:38:59;;;;;;;27.95;13.75;;;;;;;21.19;59.69;101484.47;4988922;28;20692;-73
2022/11/01 11:41:35;;;;;;;33.58;16.15;;;;;;;20.99;60.17;101487.94;4987518;28;20042;-73
2022/11/01 11:44:41;;;;;;;29.92;16.30;;;;;;;21.14;60.47;101495.78;4992714;28;20404;-73
2022/11/01 11:47:18;;;;;;;29.08;16.85;;;;;;;21.32;59.13;101484.59;4988190;28;20572;-74